Time;durP1;ratioP1;P1;durP2;ratioP2;P2;SDS_P1;SDS_P2;PMS_P1;PMS_P2;Temp;Humidity;BMP_temperature;BMP_pressure;BME280_temperature;BME280_humidity;BME280_pressure;Samples;Min_cycle;Max_cycle;Signal;HPM_P1;HPM_P2
2021/12/11 00:02:17;;;;;;;3.33;1.70;;;;;;;;;;5136957;27;20223;-83
2021/12/11 00:04:47;;;;;;;1.10;1.10;;;;;;;;;;5137154;27;20258;-83
2021/12/11 00:07:17;;;;;;;1.53;1.53;;;;;;;;;;5137225;27;20215;-83
2021/12/11 00:09:48;;;;;;;1.30;1.30;;;;;;;;;;5136862;27;20215;-83
2021/12/11 00:12:19;;;;;;;0.90;0.90;;;;;;;;;;5137276;27;20189;-84
2021/12/11 00:14:50;;;;;;;1.77;1.77;;;;;;;;;;5137112;27;20207;-84
2021/12/11 00:17:23;;;;;;;1.27;1.27;;;;;;;;;;5136653;27;20319;-83
2021/12/11 00:19:51;;;;;;;0.90;0.90;;;;;;;;;;5136257;27;20231;-83
2021/12/11 00:22:21;;;;;;;1.50;1.50;;;;;;;;;;5136697;27;20192;-83
2021/12/11 00:24:51;;;;;;;3.47;3.27;;;;;;;;;;5136356;27;20231;-83
2021/12/11 00:27:21;;;;;;;1.00;1.00;;;;;;;;;;5136564;27;20196;-83
2021/12/11 00:29:49;;;;;;;1.23;1.23;;;;;;;;;;5136467;27;20256;-83
2021/12/11 00:32:23;;;;;;;3.13;2.93;;;;;;;;;;5136249;27;20231;-83
2021/12/11 00:34:53;;;;;;;1.27;1.27;;;;;;;;;;5136184;27;20284;-83
2021/12/11 00:37:24;;;;;;;1.87;1.77;;;;;;;;;;5136149;27;20238;-83
2021/12/11 00:39:55;;;;;;;3.27;2.07;;;;;;;;;;5136056;27;20232;-83
2021/12/11 00:42:31;;;;;;;2.20;2.10;;;;;;;;;;5136296;27;20275;-83
2021/12/11 00:45:01;;;;;;;1.50;1.50;;;;;;;;;;5135975;27;20184;-83
2021/12/11 00:47:32;;;;;;;2.43;2.30;;;;;;;;;;5136234;27;20211;-83
2021/12/11 00:50:02;;;;;;;4.50;4.10;;;;;;;;;;5136096;27;20187;-83
2021/12/11 00:52:32;;;;;;;2.90;2.80;;;;;;;;;;5135959;27;20470;-83
2021/12/11 00:55:03;;;;;;;7.67;1.83;;;;;;;;;;5135911;27;20268;-83
2021/12/11 00:57:32;;;;;;;1.73;1.63;;;;;;;;;;5135965;27;20180;-83
2021/12/11 01:00:01;;;;;;;2.30;2.20;;;;;;;;;;5135431;27;20211;-83
2021/12/11 01:02:32;;;;;;;2.17;2.07;;;;;;;;;;5135684;27;20200;-83
2021/12/11 01:05:01;;;;;;;8.23;4.50;;;;;;;;;;5135806;27;20218;-83
2021/12/11 01:07:32;;;;;;;1.63;1.63;;;;;;;;;;5135709;27;20206;-83
2021/12/11 01:10:02;;;;;;;12.17;8.40;;;;;;;;;;5135668;27;20207;-83
2021/12/11 01:12:41;;;;;;;7.47;6.60;;;;;;;;;;5135923;27;20263;-83
2021/12/11 01:15:13;;;;;;;8.87;8.00;;;;;;;;;;5135058;27;20234;-83
2021/12/11 01:17:47;;;;;;;7.13;4.83;;;;;;;;;;5135817;27;20188;-83
2021/12/11 01:20:21;;;;;;;6.13;4.93;;;;;;;;;;5135444;27;20348;-83
2021/12/11 01:22:53;;;;;;;17.93;11.20;;;;;;;;;;5135905;27;20199;-83
2021/12/11 01:25:22;;;;;;;11.83;10.57;;;;;;;;;;5135253;27;20220;-83
2021/12/11 01:27:53;;;;;;;13.80;10.37;;;;;;;;;;5135554;27;20199;-83
2021/12/11 01:30:24;;;;;;;5.13;4.63;;;;;;;;;;5135714;27;20212;-83
2021/12/11 01:32:53;;;;;;;1.30;1.30;;;;;;;;;;5135263;27;20207;-83
2021/12/11 01:35:24;;;;;;;12.73;9.43;;;;;;;;;;5135391;27;20239;-83
2021/12/11 01:38:01;;;;;;;7.67;5.00;;;;;;;;;;5135577;27;20207;-83
2021/12/11 01:40:31;;;;;;;5.60;2.80;;;;;;;;;;5135326;27;20213;-83
2021/12/11 01:43:02;;;;;;;3.03;2.70;;;;;;;;;;5135248;27;20256;-83
2021/12/11 01:45:31;;;;;;;8.47;3.53;;;;;;;;;;5135231;27;20252;-83
2021/12/11 01:47:59;;;;;;;11.63;7.60;;;;;;;;;;5133229;27;20203;-83
2021/12/11 01:50:29;;;;;;;1.40;1.40;;;;;;;;;;5135229;27;20196;-83
2021/12/11 01:53:00;;;;;;;17.37;11.67;;;;;;;;;;5135153;27;20192;-83
2021/12/11 01:55:33;;;;;;;17.47;11.77;;;;;;;;;;5134656;27;20280;-83
2021/12/11 01:58:05;;;;;;;22.13;11.37;;;;;;;;;;5135294;27;20230;-83
2021/12/11 02:00:37;;;;;;;2.97;2.87;;;;;;;;;;5135015;27;20219;-83
2021/12/11 02:03:06;;;;;;;13.10;9.10;;;;;;;;;;5137447;27;20220;-83
2021/12/11 02:05:36;;;;;;;3.27;2.97;;;;;;;;;;5139374;27;20192;-83
2021/12/11 02:08:06;;;;;;;13.07;7.60;;;;;;;;;;5139733;27;20188;-83
2021/12/11 02:10:37;;;;;;;14.40;9.63;;;;;;;;;;5139287;27;20240;-83
2021/12/11 02:13:09;;;;;;;12.50;9.70;;;;;;;;;;5139129;27;20215;-83
2021/12/11 02:15:46;;;;;;;13.83;9.43;;;;;;;;;;5138832;27;20241;-83
2021/12/11 02:18:17;;;;;;;9.40;7.60;;;;;;;;;;5138883;27;20207;-83
2021/12/11 02:20:49;;;;;;;5.33;4.70;;;;;;;;;;5139053;27;20263;-83
2021/12/11 02:23:19;;;;;;;16.67;12.63;;;;;;;;;;5139140;27;20226;-83
2021/12/11 02:25:49;;;;;;;15.47;10.63;;;;;;;;;;5138945;27;20215;-83
2021/12/11 02:28:19;;;;;;;11.97;9.33;;;;;;;;;;5138971;27;20234;-83
2021/12/11 02:30:50;;;;;;;12.37;9.77;;;;;;;;;;5138705;27;20191;-83
2021/12/11 02:33:24;;;;;;;16.03;9.67;;;;;;;;;;5138921;27;20207;-83
2021/12/11 02:35:56;;;;;;;21.67;13.40;;;;;;;;;;5138570;27;20302;-83
2021/12/11 02:38:29;;;;;;;17.97;13.33;;;;;;;;;;5138803;27;20235;-83
2021/12/11 02:41:01;;;;;;;15.77;10.83;;;;;;;;;;5138833;27;20199;-83
2021/12/11 02:43:31;;;;;;;6.67;5.33;;;;;;;;;;5138623;27;20211;-83
2021/12/11 02:46:02;;;;;;;12.47;10.10;;;;;;;;;;5138634;27;20269;-83
2021/12/11 02:48:33;;;;;;;15.67;11.27;;;;;;;;;;5138233;27;20187;-83
2021/12/11 02:51:05;;;;;;;13.20;7.90;;;;;;;;;;5138278;27;20207;-83
2021/12/11 02:53:36;;;;;;;15.27;9.47;;;;;;;;;;5138297;27;20180;-83
2021/12/11 02:56:08;;;;;;;20.30;13.63;;;;;;;;;;5137645;27;20247;-83
2021/12/11 02:58:38;;;;;;;25.50;18.40;;;;;;;;;;5138408;27;20192;-83
2021/12/11 03:01:09;;;;;;;23.40;15.93;;;;;;;;;;5138107;27;20286;-83
2021/12/11 03:03:43;;;;;;;28.50;18.17;;;;;;;;;;5137954;27;20229;-83
2021/12/11 03:06:18;;;;;;;19.93;15.43;;;;;;;;;;5138211;27;20221;-83
2021/12/11 03:08:49;;;;;;;24.33;16.93;;;;;;;;;;5138256;27;20229;-83
2021/12/11 03:11:19;;;;;;;22.63;16.10;;;;;;;;;;5137908;27;20271;-84
2021/12/11 03:13:50;;;;;;;27.03;17.17;;;;;;;;;;5136579;27;20207;-83
2021/12/11 03:16:19;;;;;;;21.63;14.40;;;;;;;;;;5137474;27;20227;-83
2021/12/11 03:18:48;;;;;;;17.60;11.13;;;;;;;;;;5137612;27;20258;-83
2021/12/11 03:21:17;;;;;;;29.43;18.83;;;;;;;;;;5137920;27;20235;-83
2021/12/11 03:23:47;;;;;;;34.53;20.63;;;;;;;;;;5137462;27;20230;-83
2021/12/11 03:26:16;;;;;;;23.77;15.50;;;;;;;;;;5137772;27;20241;-83
2021/12/11 03:28:45;;;;;;;34.53;19.43;;;;;;;;;;5137641;27;20260;-83
2021/12/11 03:31:14;;;;;;;32.27;18.43;;;;;;;;;;5137864;27;20200;-83
2021/12/11 03:33:47;;;;;;;36.47;25.03;;;;;;;;;;5137720;27;20196;-83
2021/12/11 03:36:17;;;;;;;39.83;27.13;;;;;;;;;;5137262;27;20219;-83
2021/12/11 03:38:48;;;;;;;18.00;13.10;;;;;;;;;;5137404;27;20252;-83
2021/12/11 03:41:19;;;;;;;39.13;27.27;;;;;;;;;;5137988;27;20217;-83
2021/12/11 03:43:47;;;;;;;39.97;21.93;;;;;;;;;;5137524;27;20195;-83
2021/12/11 03:46:16;;;;;;;37.57;23.27;;;;;;;;;;5137379;27;20225;-83
2021/12/11 03:48:46;;;;;;;26.37;18.37;;;;;;;;;;5137501;27;20221;-83
2021/12/11 03:51:15;;;;;;;32.60;18.77;;;;;;;;;;5137165;27;20286;-83
2021/12/11 03:53:45;;;;;;;14.90;8.60;;;;;;;;;;5137466;27;20251;-83
2021/12/11 03:56:14;;;;;;;3.23;2.67;;;;;;;;;;5136825;27;20250;-83
2021/12/11 03:58:49;;;;;;;5.83;4.23;;;;;;;;;;5136935;27;20214;-84
2021/12/11 04:01:23;;;;;;;49.03;24.03;;;;;;;;;;5137173;27;20219;-84
2021/12/11 04:03:52;;;;;;;26.27;16.00;;;;;;;;;;5137493;27;20239;-84
2021/12/11 04:06:22;;;;;;;48.93;30.20;;;;;;;;;;5136974;27;20219;-84
2021/12/11 04:08:50;;;;;;;41.33;23.53;;;;;;;;;;5136982;27;20226;-83
2021/12/11 04:11:20;;;;;;;22.17;12.97;;;;;;;;;;5136706;27;20208;-83
2021/12/11 04:13:51;;;;;;;1.57;1.57;;;;;;;;;;5136873;27;20215;-83
2021/12/11 04:16:20;;;;;;;6.30;5.33;;;;;;;;;;5136844;27;20245;-84
2021/12/11 04:18:49;;;;;;;20.37;9.97;;;;;;;;;;5136362;27;20245;-84
2021/12/11 04:21:18;;;;;;;21.97;12.60;;;;;;;;;;5136259;27;20252;-84
2021/12/11 04:23:46;;;;;;;7.93;4.83;;;;;;;;;;5136111;27;20250;-84
2021/12/11 04:26:15;;;;;;;1.53;1.50;;;;;;;;;;5136038;27;20278;-84
2021/12/11 04:28:46;;;;;;;5.00;3.83;;;;;;;;;;5136092;27;20208;-84
2021/12/11 04:31:17;;;;;;;3.70;2.90;;;;;;;;;;5136494;27;20191;-84
2021/12/11 04:33:47;;;;;;;6.03;2.53;;;;;;;;;;5136252;27;20203;-84
2021/12/11 04:36:21;;;;;;;2.07;1.43;;;;;;;;;;5136238;27;20268;-84
2021/12/11 04:38:50;;;;;;;1.63;1.53;;;;;;;;;;5136538;27;20204;-84
2021/12/11 04:41:23;;;;;;;3.63;2.00;;;;;;;;;;5136211;27;20211;-84
2021/12/11 04:43:53;;;;;;;2.40;1.40;;;;;;;;;;5135993;27;20291;-84
2021/12/11 04:46:24;;;;;;;2.57;1.40;;;;;;;;;;5136375;27;20191;-84
2021/12/11 04:49:01;;;;;;;4.77;1.80;;;;;;;;;;5136427;27;20180;-84
2021/12/11 04:51:37;;;;;;;3.07;1.37;;;;;;;;;;5135954;27;20283;-84
2021/12/11 04:54:20;;;;;;;3.27;1.43;;;;;;;;;;5136121;27;20200;-84
2021/12/11 04:59:51;;;;;;;4.93;2.03;;;;;;;;;;5132138;27;20223;-84
2021/12/11 05:02:53;;;;;;;7.07;2.57;;;;;;;;;;5136052;27;20205;-84
2021/12/11 05:05:31;;;;;;;3.33;3.03;;;;;;;;;;5135794;27;20195;-84
2021/12/11 05:08:15;;;;;;;1.27;1.27;;;;;;;;;;5135654;27;20215;-85
2021/12/11 05:10:52;;;;;;;1.50;1.47;;;;;;;;;;5135833;27;20210;-84
2021/12/11 05:13:21;;;;;;;8.40;3.70;;;;;;;;;;5135565;27;20211;-84
2021/12/11 05:15:51;;;;;;;6.70;4.87;;;;;;;;;;5135539;27;20245;-84
2021/12/11 05:18:23;;;;;;;10.67;6.83;;;;;;;;;;5135241;27;20278;-84
2021/12/11 05:20:54;;;;;;;18.67;9.07;;;;;;;;;;5135521;27;20287;-84
2021/12/11 05:23:23;;;;;;;24.17;11.97;;;;;;;;;;5135671;27;20184;-84
2021/12/11 05:25:51;;;;;;;12.67;8.97;;;;;;;;;;5135277;27;20199;-84
2021/12/11 05:28:20;;;;;;;28.47;12.43;;;;;;;;;;5135194;27;20290;-84
2021/12/11 05:30:50;;;;;;;19.03;8.47;;;;;;;;;;5134977;27;20252;-84
2021/12/11 05:33:18;;;;;;;8.50;5.37;;;;;;;;;;5135436;27;20204;-84
2021/12/11 05:35:48;;;;;;;12.60;6.87;;;;;;;;;;5134815;27;20251;-84
2021/12/11 05:38:19;;;;;;;6.07;4.20;;;;;;;;;;5134759;27;20221;-84
2021/12/11 05:40:49;;;;;;;19.30;9.73;;;;;;;;;;5135463;27;20226;-84
2021/12/11 05:43:18;;;;;;;13.80;8.10;;;;;;;;;;5135044;27;20203;-84
2021/12/11 05:45:46;;;;;;;13.93;9.73;;;;;;;;;;5135152;27;20223;-84
2021/12/11 05:48:16;;;;;;;8.17;6.50;;;;;;;;;;5134916;27;20203;-84
2021/12/11 05:50:48;;;;;;;3.70;3.33;;;;;;;;;;5135290;27;20200;-84
2021/12/11 05:53:18;;;;;;;6.73;6.13;;;;;;;;;;5134904;27;20234;-84
2021/12/11 05:55:48;;;;;;;14.67;5.50;;;;;;;;;;5135364;27;20229;-83
2021/12/11 05:58:25;;;;;;;2.23;2.13;;;;;;;;;;5134696;27;20234;-84
2021/12/11 06:00:56;;;;;;;3.00;2.20;;;;;;;;;;5135137;27;20218;-84
2021/12/11 06:03:24;;;;;;;2.47;2.27;;;;;;;;;;5134644;27;20223;-84
2021/12/11 06:05:53;;;;;;;11.43;9.17;;;;;;;;;;5134775;27;20203;-84
2021/12/11 06:08:22;;;;;;;10.30;7.07;;;;;;;;;;5135251;27;20195;-84
2021/12/11 06:10:51;;;;;;;8.00;6.27;;;;;;;;;;5135148;27;20260;-84
2021/12/11 06:13:19;;;;;;;7.93;4.63;;;;;;;;;;5135415;27;20227;-84
2021/12/11 06:15:48;;;;;;;13.40;8.57;;;;;;;;;;5135017;27;20231;-84
2021/12/11 06:18:18;;;;;;;8.27;6.83;;;;;;;;;;5134991;27;20235;-84
2021/12/11 06:20:48;;;;;;;8.83;6.83;;;;;;;;;;5135197;27;20204;-84
2021/12/11 06:23:16;;;;;;;4.43;4.07;;;;;;;;;;5135026;27;20260;-84
2021/12/11 06:25:46;;;;;;;8.83;5.77;;;;;;;;;;5135041;27;20207;-84
2021/12/11 06:28:15;;;;;;;3.30;2.93;;;;;;;;;;5134591;27;20192;-84
2021/12/11 06:30:43;;;;;;;4.73;4.30;;;;;;;;;;5134877;27;20223;-84
2021/12/11 06:33:12;;;;;;;3.53;3.03;;;;;;;;;;5134727;27;20302;-84
2021/12/11 06:35:42;;;;;;;8.57;7.37;;;;;;;;;;5134598;27;20302;-84
2021/12/11 06:38:12;;;;;;;1.53;1.53;;;;;;;;;;5134705;27;20239;-84
2021/12/11 06:40:40;;;;;;;1.00;1.00;;;;;;;;;;5134438;27;20253;-84
2021/12/11 06:43:10;;;;;;;2.63;1.83;;;;;;;;;;5134869;27;20196;-84
2021/12/11 06:45:39;;;;;;;0.80;0.80;;;;;;;;;;5134554;27;20269;-84
2021/12/11 06:48:12;;;;;;;0.80;0.80;;;;;;;;;;5135472;27;20241;-84
2021/12/11 06:50:40;;;;;;;0.90;0.90;;;;;;;;;;5138356;27;20212;-84
2021/12/11 06:53:10;;;;;;;1.00;1.00;;;;;;;;;;5137826;27;20204;-84
2021/12/11 06:55:39;;;;;;;1.43;1.43;;;;;;;;;;5137982;27;20244;-84
2021/12/11 06:58:08;;;;;;;2.43;2.33;;;;;;;;;;5137879;27;20276;-84
2021/12/11 07:00:38;;;;;;;0.90;0.90;;;;;;;;;;5138417;27;20196;-84
2021/12/11 07:03:06;;;;;;;2.40;2.30;;;;;;;;;;5138131;27;20302;-83
2021/12/11 07:05:37;;;;;;;3.13;3.03;;;;;;;;;;5137849;27;20238;-84
2021/12/11 07:08:06;;;;;;;2.10;1.90;;;;;;;;;;5138592;27;20180;-84
2021/12/11 07:10:35;;;;;;;4.70;4.40;;;;;;;;;;5138370;27;20253;-83
2021/12/11 07:13:03;;;;;;;2.07;2.00;;;;;;;;;;5138399;27;20235;-83
2021/12/11 07:15:32;;;;;;;1.60;1.57;;;;;;;;;;5137900;27;20294;-83
2021/12/11 07:18:02;;;;;;;0.87;0.87;;;;;;;;;;5138035;27;20283;-83
2021/12/11 07:20:30;;;;;;;1.33;1.33;;;;;;;;;;5137383;27;20239;-83
2021/12/11 07:22:59;;;;;;;0.90;0.90;;;;;;;;;;5137708;27;20286;-83
2021/12/11 07:25:32;;;;;;;1.00;1.00;;;;;;;;;;5137634;27;20278;-83
2021/12/11 07:28:03;;;;;;;0.90;0.90;;;;;;;;;;5137539;27;20196;-84
2021/12/11 07:30:33;;;;;;;0.90;0.90;;;;;;;;;;5137979;27;20248;-84
2021/12/11 07:33:04;;;;;;;2.43;2.33;;;;;;;;;;5137767;27;20200;-84
2021/12/11 07:35:33;;;;;;;0.90;0.90;;;;;;;;;;5137542;27;20249;-84
2021/12/11 07:38:02;;;;;;;1.67;1.57;;;;;;;;;;5137263;27;20284;-84
2021/12/11 07:40:32;;;;;;;1.17;1.17;;;;;;;;;;5137581;27;20203;-84
2021/12/11 07:43:01;;;;;;;1.40;1.40;;;;;;;;;;5137283;27;20227;-84
2021/12/11 07:45:30;;;;;;;4.80;4.63;;;;;;;;;;5137173;27;20196;-84
2021/12/11 07:48:00;;;;;;;0.80;0.80;;;;;;;;;;5137692;27;20245;-84
2021/12/11 07:50:30;;;;;;;4.67;4.20;;;;;;;;;;5136878;27;20203;-84
2021/12/11 07:52:59;;;;;;;1.13;1.13;;;;;;;;;;5137043;27;20211;-84
2021/12/11 07:55:27;;;;;;;2.03;2.03;;;;;;;;;;5136712;27;20231;-84
2021/12/11 07:57:56;;;;;;;5.60;3.77;;;;;;;;;;5137029;27;20219;-84
2021/12/11 08:00:29;;;;;;;0.80;0.80;;;;;;;;;;5136302;27;20211;-84
2021/12/11 08:02:58;;;;;;;0.90;0.90;;;;;;;;;;5137228;27;20227;-83
2021/12/11 08:05:31;;;;;;;3.40;3.23;;;;;;;;;;5136919;27;20264;-84
2021/12/11 08:08:01;;;;;;;0.73;0.73;;;;;;;;;;5136981;27;20200;-84
2021/12/11 08:10:31;;;;;;;1.63;1.53;;;;;;;;;;5137166;27;20223;-84
2021/12/11 08:13:00;;;;;;;1.30;1.30;;;;;;;;;;5136386;27;20245;-83
2021/12/11 08:15:29;;;;;;;1.63;1.57;;;;;;;;;;5136908;27;20237;-84
2021/12/11 08:18:01;;;;;;;4.90;2.80;;;;;;;;;;5136942;27;20223;-84
2021/12/11 08:20:31;;;;;;;2.20;2.10;;;;;;;;;;5136313;27;20255;-84
2021/12/11 08:23:00;;;;;;;1.13;1.13;;;;;;;;;;5136832;27;20232;-84
2021/12/11 08:25:30;;;;;;;0.80;0.80;;;;;;;;;;5136430;27;20212;-83
2021/12/11 08:28:00;;;;;;;1.10;1.10;;;;;;;;;;5136913;27;20229;-84
2021/12/11 08:30:31;;;;;;;3.30;2.23;;;;;;;;;;5136352;27;20227;-83
2021/12/11 08:32:59;;;;;;;2.57;1.70;;;;;;;;;;5136415;27;20212;-83
2021/12/11 08:35:32;;;;;;;2.30;2.20;;;;;;;;;;5136386;27;20215;-83
2021/12/11 08:38:00;;;;;;;2.23;2.13;;;;;;;;;;5136497;27;20252;-84
2021/12/11 08:40:30;;;;;;;3.97;3.77;;;;;;;;;;5136333;27;20195;-83
2021/12/11 08:42:59;;;;;;;4.13;3.73;;;;;;;;;;5136151;27;20240;-84
2021/12/11 08:45:44;;;;;;;1.93;1.93;;;;;;;;;;5135592;27;20200;-84
2021/12/11 08:48:14;;;;;;;1.93;1.83;;;;;;;;;;5135808;27;20207;-84
2021/12/11 08:50:45;;;;;;;3.70;1.93;;;;;;;;;;5136035;27;20264;-84
2021/12/11 08:53:13;;;;;;;1.80;1.80;;;;;;;;;;5135944;27;20187;-83
2021/12/11 08:55:43;;;;;;;1.30;1.30;;;;;;;;;;5135693;27;20228;-84
2021/12/11 08:58:14;;;;;;;0.90;0.90;;;;;;;;;;5135701;27;20203;-84
2021/12/11 09:00:43;;;;;;;1.40;1.33;;;;;;;;;;5135755;27;20196;-84
2021/12/11 09:03:13;;;;;;;4.20;3.80;;;;;;;;;;5136056;27;20219;-84
2021/12/11 09:05:45;;;;;;;0.90;0.90;;;;;;;;;;5136012;27;20200;-84
2021/12/11 09:08:17;;;;;;;1.70;1.57;;;;;;;;;;5135857;27;20191;-84
2021/12/11 09:10:47;;;;;;;1.73;1.73;;;;;;;;;;5135967;27;20229;-84
2021/12/11 09:13:17;;;;;;;3.77;3.60;;;;;;;;;;5134920;27;20199;-84
2021/12/11 09:15:48;;;;;;;0.80;0.80;;;;;;;;;;5135930;27;20196;-84
2021/12/11 09:18:18;;;;;;;1.70;1.63;;;;;;;;;;5135246;27;20276;-84
2021/12/11 09:20:48;;;;;;;2.50;2.23;;;;;;;;;;5135336;27;20258;-84
2021/12/11 09:23:24;;;;;;;2.63;2.43;;;;;;;;;;5136184;27;20294;-85
2021/12/11 09:25:55;;;;;;;1.63;1.63;;;;;;;;;;5135292;27;20203;-84
2021/12/11 09:28:25;;;;;;;9.90;8.03;;;;;;;;;;5135414;27;20188;-84
2021/12/11 09:30:56;;;;;;;12.70;8.67;;;;;;;;;;5135073;27;20303;-85
2021/12/11 09:33:26;;;;;;;10.63;7.50;;;;;;;;;;5135420;27;20211;-84
2021/12/11 09:35:55;;;;;;;10.83;6.67;;;;;;;;;;5135531;27;20298;-84
2021/12/11 09:38:27;;;;;;;20.63;10.73;;;;;;;;;;5135362;27;20247;-84
2021/12/11 09:40:55;;;;;;;15.37;9.77;;;;;;;;;;5135393;27;20200;-84
2021/12/11 09:43:41;;;;;;;16.93;10.40;;;;;;;;;;5135103;27;20208;-84
2021/12/11 09:46:11;;;;;;;2.70;2.60;;;;;;;;;;5135041;27;20231;-85
2021/12/11 09:48:41;;;;;;;1.00;1.00;;;;;;;;;;5135199;27;20220;-84
2021/12/11 09:51:12;;;;;;;0.70;0.70;;;;;;;;;;5135192;27;20200;-84
2021/12/11 09:53:42;;;;;;;7.50;4.87;;;;;;;;;;5135204;27;20259;-85
2021/12/11 09:56:14;;;;;;;0.70;0.70;;;;;;;;;;5135071;27;20210;-84
2021/12/11 09:58:44;;;;;;;0.83;0.83;;;;;;;;;;5134934;27;20254;-84
2021/12/11 10:01:15;;;;;;;12.57;8.63;;;;;;;;;;5135267;27;20452;-84
2021/12/11 10:03:48;;;;;;;1.83;1.83;;;;;;;;;;5135038;27;20305;-83
2021/12/11 10:06:37;;;;;;;0.80;0.80;;;;;;;;;;5135028;27;20253;-85
2021/12/11 10:09:17;;;;;;;0.80;0.80;;;;;;;;;;5135144;27;20183;-85
2021/12/11 10:11:49;;;;;;;3.00;2.80;;;;;;;;;;5134803;27;20212;-83
2021/12/11 10:14:20;;;;;;;5.93;5.43;;;;;;;;;;5135352;27;20280;-83
2021/12/11 10:16:50;;;;;;;12.17;5.50;;;;;;;;;;5134797;27;20199;-83
2021/12/11 10:19:20;;;;;;;6.90;5.07;;;;;;;;;;5134281;27;20232;-83
2021/12/11 10:21:49;;;;;;;3.20;2.90;;;;;;;;;;5135091;27;20209;-83
2021/12/11 10:24:19;;;;;;;5.93;3.07;;;;;;;;;;5137271;27;20212;-83
2021/12/11 10:26:49;;;;;;;19.73;11.43;;;;;;;;;;5138776;27;20201;-84
2021/12/11 10:29:19;;;;;;;1.00;1.00;;;;;;;;;;5138880;27;20243;-84
2021/12/11 10:31:48;;;;;;;3.43;2.30;;;;;;;;;;5139172;27;20237;-84
2021/12/11 10:34:18;;;;;;;5.07;4.33;;;;;;;;;;5138306;27;20233;-84
2021/12/11 10:36:50;;;;;;;3.20;3.07;;;;;;;;;;5138496;27;20186;-84
2021/12/11 10:39:18;;;;;;;3.00;2.73;;;;;;;;;;5138453;27;20236;-83
2021/12/11 10:41:47;;;;;;;2.50;2.30;;;;;;;;;;5138569;27;20228;-84
2021/12/11 10:44:17;;;;;;;1.07;1.07;;;;;;;;;;5138354;27;20204;-84
2021/12/11 10:46:49;;;;;;;41.37;3.17;;;;;;;;;;5137962;27;20210;-83
2021/12/11 10:49:18;;;;;;;2.30;2.03;;;;;;;;;;5138317;27;20263;-83
2021/12/11 10:51:48;;;;;;;4.43;4.20;;;;;;;;;;5138277;27;20213;-83
2021/12/11 10:54:18;;;;;;;1.30;1.20;;;;;;;;;;5138735;27;20232;-84
2021/12/11 10:56:47;;;;;;;1.17;1.17;;;;;;;;;;5138266;27;20205;-84
2021/12/11 10:59:18;;;;;;;0.70;0.70;;;;;;;;;;5138290;27;20276;-84
2021/12/11 11:01:50;;;;;;;3.00;2.90;;;;;;;;;;5137880;27;20258;-83
2021/12/11 11:04:21;;;;;;;6.37;4.33;;;;;;;;;;5138075;27;20291;-83
2021/12/11 11:06:50;;;;;;;1.23;1.23;;;;;;;;;;5138078;27;20223;-83
2021/12/11 11:09:20;;;;;;;0.90;0.90;;;;;;;;;;5138167;27;20235;-83
2021/12/11 11:11:49;;;;;;;0.70;0.70;;;;;;;;;;5138115;27;20206;-84
2021/12/11 11:14:18;;;;;;;1.27;1.27;;;;;;;;;;5137870;27;20259;-84
2021/12/11 11:16:51;;;;;;;5.80;2.53;;;;;;;;;;5137768;27;20206;-84
2021/12/11 11:19:22;;;;;;;1.87;1.67;;;;;;;;;;5137840;27;20236;-84
2021/12/11 11:21:56;;;;;;;4.17;2.47;;;;;;;;;;5137925;27;20189;-84
2021/12/11 11:24:26;;;;;;;2.93;1.30;;;;;;;;;;5137633;27;20251;-84
2021/12/11 11:26:54;;;;;;;2.10;2.03;;;;;;;;;;5137945;27;20193;-83
2021/12/11 11:29:24;;;;;;;1.83;1.57;;;;;;;;;;5138094;27;20220;-84
2021/12/11 11:31:54;;;;;;;0.70;0.70;;;;;;;;;;5137938;27;20206;-83
2021/12/11 11:34:26;;;;;;;18.80;2.17;;;;;;;;;;5137494;27;20209;-83
2021/12/11 11:36:56;;;;;;;2.10;1.80;;;;;;;;;;5137461;27;20211;-84
2021/12/11 11:39:26;;;;;;;1.47;1.37;;;;;;;;;;5137326;27;20236;-84
2021/12/11 11:41:55;;;;;;;3.03;1.17;;;;;;;;;;5137706;27;20259;-83
2021/12/11 11:44:26;;;;;;;2.60;1.77;;;;;;;;;;5137506;27;20258;-84
2021/12/11 11:46:56;;;;;;;2.00;1.10;;;;;;;;;;5137791;27;20191;-84
2021/12/11 11:49:27;;;;;;;3.10;1.33;;;;;;;;;;5137760;27;20277;-84
2021/12/11 11:51:57;;;;;;;1.13;1.03;;;;;;;;;;5137113;27;20234;-84
2021/12/11 11:54:27;;;;;;;1.70;1.23;;;;;;;;;;5137376;27;20413;-84
2021/12/11 11:57:05;;;;;;;2.80;1.40;;;;;;;;;;5137034;27;20233;-84
2021/12/11 11:59:34;;;;;;;6.00;2.03;;;;;;;;;;5137124;27;20201;-84
2021/12/11 12:02:05;;;;;;;1.00;1.00;;;;;;;;;;5137361;27;20203;-84
2021/12/11 12:04:36;;;;;;;1.20;1.20;;;;;;;;;;5137092;27;20310;-84
2021/12/11 12:07:05;;;;;;;1.10;1.10;;;;;;;;;;5136749;27;20229;-84
2021/12/11 12:09:35;;;;;;;5.63;1.43;;;;;;;;;;5136576;27;20254;-84
2021/12/11 12:12:05;;;;;;;1.13;1.13;;;;;;;;;;5136947;27;20210;-83
2021/12/11 12:14:35;;;;;;;4.43;2.20;;;;;;;;;;5136857;27;20210;-83
2021/12/11 12:17:04;;;;;;;1.67;1.30;;;;;;;;;;5136913;27;20206;-84
2021/12/11 12:19:33;;;;;;;7.07;2.13;;;;;;;;;;5136330;27;20256;-83
2021/12/11 12:22:04;;;;;;;0.90;0.90;;;;;;;;;;5136463;27;20232;-83
2021/12/11 12:24:33;;;;;;;0.77;0.77;;;;;;;;;;5136671;27;20201;-83
2021/12/11 12:27:02;;;;;;;0.70;0.70;;;;;;;;;;5136348;27;20287;-84
2021/12/11 12:29:31;;;;;;;2.33;1.13;;;;;;;;;;5136220;27;20199;-84
2021/12/11 12:32:01;;;;;;;1.00;1.00;;;;;;;;;;5136621;27;20211;-84
2021/12/11 12:34:30;;;;;;;1.33;1.23;;;;;;;;;;5136285;27;20271;-83
2021/12/11 12:37:00;;;;;;;1.57;0.97;;;;;;;;;;5136318;27;20203;-84
2021/12/11 12:39:36;;;;;;;4.37;1.17;;;;;;;;;;5136135;27;22117;-84
2021/12/11 12:42:16;;;;;;;3.53;1.37;;;;;;;;;;5136214;27;20241;-84
2021/12/11 12:44:46;;;;;;;1.10;1.00;;;;;;;;;;5136209;27;20211;-84
2021/12/11 12:47:16;;;;;;;5.73;1.20;;;;;;;;;;5136233;27;20200;-84
2021/12/11 12:49:48;;;;;;;3.97;1.53;;;;;;;;;;5135814;27;20203;-84
2021/12/11 12:52:18;;;;;;;0.90;0.90;;;;;;;;;;5136208;27;20205;-83
2021/12/11 12:54:49;;;;;;;0.60;0.60;;;;;;;;;;5135948;27;20260;-84
2021/12/11 12:57:19;;;;;;;8.73;1.67;;;;;;;;;;5115371;28;20235;-84
2021/12/11 12:59:51;;;;;;;1.37;1.27;;;;;;;;;;5115601;28;20235;-83
2021/12/11 13:02:21;;;;;;;10.97;1.73;;;;;;;;;;5114887;28;20238;-84
2021/12/11 13:04:52;;;;;;;6.47;2.00;;;;;;;;;;5115139;28;20237;-84
2021/12/11 13:07:38;;;;;;;3.47;1.73;;;;;;;;;;5115669;28;20205;-84
2021/12/11 13:10:10;;;;;;;11.50;2.20;;;;;;;;;;5114707;28;20207;-84
2021/12/11 13:12:39;;;;;;;6.53;2.40;;;;;;;;;;5115167;28;20237;-83
2021/12/11 13:15:09;;;;;;;4.10;1.93;;;;;;;;;;5115045;28;20287;-84
2021/12/11 13:17:40;;;;;;;1.90;1.50;;;;;;;;;;5114824;28;20293;-84
2021/12/11 13:20:11;;;;;;;4.03;1.60;;;;;;;;;;5114574;28;20239;-84
2021/12/11 13:22:42;;;;;;;2.43;1.67;;;;;;;;;;5114730;28;20206;-84
2021/12/11 13:25:15;;;;;;;1.83;1.33;;;;;;;;;;5114962;28;20222;-83
2021/12/11 13:27:44;;;;;;;2.83;1.80;;;;;;;;;;5115026;28;20195;-84
2021/12/11 13:30:15;;;;;;;1.33;1.23;;;;;;;;;;5115112;28;20241;-83
2021/12/11 13:32:43;;;;;;;1.80;1.40;;;;;;;;;;5115035;28;20232;-84
2021/12/11 13:35:13;;;;;;;5.80;2.70;;;;;;;;;;5114567;28;20275;-84
2021/12/11 13:37:42;;;;;;;2.43;2.20;;;;;;;;;;5115152;28;20207;-83
2021/12/11 13:40:14;;;;;;;5.63;1.70;;;;;;;;;;5114185;28;20256;-83
2021/12/11 13:42:44;;;;;;;5.27;2.30;;;;;;;;;;5114839;28;20252;-83
2021/12/11 13:45:15;;;;;;;0.90;0.90;;;;;;;;;;5114528;28;20241;-83
2021/12/11 13:47:44;;;;;;;1.30;1.30;;;;;;;;;;5114776;28;20198;-83
2021/12/11 13:50:18;;;;;;;8.63;2.83;;;;;;;;;;5114461;28;20299;-83
2021/12/11 13:52:47;;;;;;;2.30;1.30;;;;;;;;;;5114586;28;20244;-83
2021/12/11 13:55:17;;;;;;;5.73;1.63;;;;;;;;;;5117941;28;20206;-83
2021/12/11 13:58:00;;;;;;;12.70;3.27;;;;;;;;;;5135853;27;20237;-83
2021/12/11 14:00:30;;;;;;;1.43;1.00;;;;;;;;;;5139006;27;20254;-83
2021/12/11 14:03:10;;;;;;;1.50;1.40;;;;;;;;;;5139164;27;20222;-83
2021/12/11 14:05:39;;;;;;;3.97;1.53;;;;;;;;;;5139484;27;20203;-83
2021/12/11 14:08:10;;;;;;;6.30;3.03;;;;;;;;;;5139071;27;20202;-84
2021/12/11 14:10:40;;;;;;;3.57;1.40;;;;;;;;;;5139336;27;20212;-83
2021/12/11 14:13:10;;;;;;;3.17;2.93;;;;;;;;;;5139309;27;20302;-83
2021/12/11 14:15:40;;;;;;;5.33;2.47;;;;;;;;;;5138835;27;20243;-84
2021/12/11 14:18:09;;;;;;;2.37;2.10;;;;;;;;;;5139066;27;20228;-84
2021/12/11 14:20:38;;;;;;;2.20;1.67;;;;;;;;;;5138289;27;20308;-83
2021/12/11 14:23:08;;;;;;;2.20;1.03;;;;;;;;;;5138942;27;20231;-84
2021/12/11 14:25:36;;;;;;;4.53;1.80;;;;;;;;;;5138906;27;20222;-84
2021/12/11 14:28:08;;;;;;;1.40;1.23;;;;;;;;;;5138911;27;20289;-83
2021/12/11 14:30:39;;;;;;;6.10;2.30;;;;;;;;;;5138893;27;20177;-83
2021/12/11 14:33:07;;;;;;;3.30;1.97;;;;;;;;;;5138569;27;20193;-83
2021/12/11 14:35:38;;;;;;;2.13;1.53;;;;;;;;;;5138889;27;20249;-83
2021/12/11 14:38:08;;;;;;;5.13;1.20;;;;;;;;;;5138510;27;20205;-83
2021/12/11 14:40:39;;;;;;;0.90;0.90;;;;;;;;;;5138689;27;20327;-83
2021/12/11 14:43:09;;;;;;;3.17;3.00;;;;;;;;;;5138798;27;20188;-83
2021/12/11 14:45:40;;;;;;;2.77;1.97;;;;;;;;;;5138454;27;20231;-83
2021/12/11 14:48:09;;;;;;;2.57;1.10;;;;;;;;;;5138240;27;20292;-83
2021/12/11 14:50:39;;;;;;;1.03;1.03;;;;;;;;;;5138062;27;20294;-84
2021/12/11 14:53:10;;;;;;;2.27;2.07;;;;;;;;;;5138098;27;20229;-83
2021/12/11 14:55:40;;;;;;;1.43;1.33;;;;;;;;;;5138404;27;20213;-83
2021/12/11 14:58:15;;;;;;;3.70;1.97;;;;;;;;;;5137991;27;20181;-83
2021/12/11 15:00:45;;;;;;;1.00;1.00;;;;;;;;;;5138408;27;20198;-83
2021/12/11 15:03:13;;;;;;;1.63;1.37;;;;;;;;;;5138103;27;20227;-84